Weather observations for the past three days for
Cancun International Airport
Imperial (Metric)
Date Time (est) Wind (mph) Vis. (mi.) Weather Sky Cond. Temperature (ºF) Relative Humidity Wind Chill (°F) Heat Index (°F) Pressure Precipitation (in)
Air Dwpt 6 hour altimeter (in) sea level (mb) 1 hr 3 hr 6 hr
Max. Min.
02 16:47 SE 16 7.00 A Few Clouds FEW015 87.8 78.8 75% 102 29.81 0.0
02 15:41 SE 20 7.00 A Few Clouds FEW015 87.8 77 70% 100 29.83 1010.4
02 14:45 SE 16 7.00 Partly Cloudy SCT015 89.6 77 67% 103 29.83 0.0
02 13:40 SE 23 7.00 Partly Cloudy and Breezy SCT015 89.6 75.2 63% 100 29.84 0.0
02 12:45 SE 13 7.00 Partly Cloudy SCT015 89.6 78.8 71% 105 29.87 1011.6
02 11:40 S 16 7.00 Partly Cloudy SCT015 89.6 75.2 63% 100 29.89 0.0
02 10:43 S 15 7.00 Partly Cloudy SCT015 87.8 77 70% 100 29.89 0.0
02 09:44 S 14 7.00 Mostly Cloudy BKN015 86 77 75% 97 29.88 1011.8
02 08:44 S 14 7.00 Partly Cloudy SCT015 86 77 75% 97 29.87 0.0
02 07:54 SE 16 7.00 Partly Cloudy SCT015 84.2 77 79% 94 29.85 0.0
02 06:41 SE 13 7.00 Partly Cloudy SCT015 82.4 77 84% 91 29.83 1010.3
02 05:43 S 12 7.00 A Few Clouds FEW015 82.4 77 84% 91 29.82 0.0
02 04:40 SE 13 7.00 Clear SKC 82.4 77 84% 91 29.81 0.0
02 03:40 SE 10 7.00 A Few Clouds FEW015 82.4 77 84% 91 29.81 1009.7
02 02:40 SE 13 7.00 A Few Clouds FEW015 82.4 77 84% 91 29.83 0.0
02 01:40 SE 15 7.00 A Few Clouds FEW015 82.4 77 84% 91 29.83 0.0
02 00:40 SE 13 7.00 Clear SKC 82.4 77 84% 91 29.84 1010.6
01 23:44 SE 13 7.00 Clear SKC 82.4 77 84% 91 29.86 0.0
01 22:41 S 12 7.00 Clear SKC 82.4 77 84% 91 29.86 0.0
01 21:45 SE 17 7.00 Partly Cloudy SCT015TCU 82.4 77 84% 91 29.85 1010.8
01 20:43 S 14 7.00 Partly Cloudy SCT015TCU 82.4 77 84% 91 29.83 0.0
01 19:42 SE 14 7.00 Mostly Cloudy BKN015 82.4 77 84% 91 29.8 0.0
01 18:43 SE 16 7.00 Mostly Cloudy BKN015TCU 84.2 77 79% 94 29.78 1008.8
01 17:40 S 16 7.00 Mostly Cloudy BKN015 84.2 77 79% 94 29.78 0.0
01 16:40 S 16 7.00 Partly Cloudy SCT015 86 77 75% 97 29.77 0.0
01 15:41 S 17 7.00 Partly Cloudy SCT015 87.8 77 70% 100 29.79 1009.1
01 14:44 SE 16 7.00 Mostly Cloudy BKN015 87.8 77 70% 100 29.82 0.0
01 13:46 S 14 7.00 Partly Cloudy SCT015 87.8 75.2 66% 98 29.84 0.0
01 12:53 S 16 7.00 Partly Cloudy SCT015 87.8 77 70% 100 29.85 1011.2
01 11:43 S 16 7.00 Partly Cloudy SCT015 87.8 75.2 66% 98 29.87 0.0
01 10:42 S 17 7.00 Partly Cloudy SCT015 86 75.2 70% 95 29.88 0.0
01 09:49 SE 18 7.00 Partly Cloudy SCT015 86 75.2 70% 95 29.88 1012.0
01 08:47 SE 15 7.00 Partly Cloudy SCT015 84.2 75.2 74% 92 29.88 0.0
01 07:42 SE 14 7.00 Partly Cloudy SCT015 82.4 75.2 79% 89 29.87 0.0
01 06:41 SE 12 7.00 Partly Cloudy SCT015TCU 80.6 73.4 79% 85 29.86 1011.3
01 05:41 SE 9 7.00 A Few Clouds FEW015TCU 80.6 73.4 79% 85 29.85 0.0
01 04:40 SE 7 7.00 A Few Clouds FEW015 80.6 73.4 79% 85 29.85 0.0
01 03:42 SE 6 7.00 A Few Clouds FEW015 80.6 73.4 79% 85 29.85 1010.8
01 02:40 SE 10 7.00 Partly Cloudy SCT015 80.6 75.2 84% 86 29.85 0.0
01 01:40 SE 10 7.00 Partly Cloudy SCT015 80.6 75.2 84% 86 29.86 0.0
01 00:41 SE 9 7.00 Partly Cloudy SCT015 80.6 75.2 84% 86 29.88 1012.0
30 23:40 SE 8 7.00 Partly Cloudy SCT015 80.6 75.2 84% 86 29.9 0.0
30 22:40 SE 8 7.00 Partly Cloudy SCT015 80.6 75.2 84% 86 29.89 0.0
30 21:40 SE 7 7.00 Partly Cloudy SCT015 80.6 73.4 79% 85 29.88 1011.9
30 20:40 SE 16 7.00 Partly Cloudy SCT015 82.4 73.4 74% 88 29.86 0.0
30 19:42 SE 14 7.00 Partly Cloudy SCT015 82.4 75.2 79% 89 29.85 0.0
30 17:42 SE 12 7.00 Partly Cloudy SCT015TCU 84.2 75.2 74% 92 29.82 0.0
30 16:45 SE 15 7.00 Partly Cloudy SCT015 84.2 75.2 74% 92 29.81 0.0
30 15:42 S 14 7.00 Partly Cloudy SCT015 86 75.2 70% 95 29.83 1010.2
30 14:43 SE 17 7.00 Mostly Cloudy BKN015 87.8 75.2 66% 98 29.84 0.0
30 13:42 SE 12 7.00 Partly Cloudy SCT015 87.8 75.2 66% 98 29.86 0.0
30 12:51 SE 13 7.00 Partly Cloudy SCT015 86 75.2 70% 95 29.88 1011.9
30 11:44 S 12 7.00 Mostly Cloudy BKN015 87.8 75.2 66% 98 29.9 0.0
30 10:46 SE 16 7.00 Partly Cloudy SCT015 87.8 75.2 66% 98 29.91 0.0
30 09:44 SE 9 7.00 Mostly Cloudy BKN015TCU 86 77 75% 97 29.93 1013.5
30 08:43 SE 9 7.00 Partly Cloudy SCT015 84.2 75.2 74% 92 29.91 0.0
30 07:42 E 8 7.00 A Few Clouds FEW015TCU 84.2 75.2 74% 92 29.89 0.0
30 06:44 Calm 7.00 Partly Cloudy SCT015 77 73.4 89% 78 29.88 1012.1
30 05:40 SE 5 7.00 A Few Clouds FEW015 77 73.4 89% 78 29.86 0.0
30 04:40 SE 8 7.00 A Few Clouds FEW015 78.8 73.4 84% 82 29.85 0.0
30 03:41 SE 7 7.00 A Few Clouds FEW015 77 73.4 89% 78 29.86 1011.3
30 02:40 SE 5 7.00 A Few Clouds FEW015 78.8 71.6 79% 82 29.88 0.0
30 01:40 SE 8 7.00 A Few Clouds FEW015 78.8 73.4 84% 82 29.9 0.0
30 00:40 SE 5 7.00 A Few Clouds FEW015 78.8 73.4 84% 82 29.93 1013.5
29 23:41 SE 7 7.00 A Few Clouds FEW015 80.6 73.4 79% 85 29.94 0.0
29 22:43 SE 8 7.00 A Few Clouds FEW015 80.6 73.4 79% 85 29.93 0.0
29 21:50 SE 8 7.00 A Few Clouds FEW015 80.6 75.2 84% 86 29.92 1013.3
29 20:42 SE 12 7.00 A Few Clouds FEW015 80.6 73.4 79% 85 29.91 0.0
29 19:49 SE 9 7.00 Clear SKC 82.4 73.4 74% 88 29.89 0.0
29 18:41 SE 14 7.00 A Few Clouds FEW015 82.4 73.4 74% 88 29.88 1011.8
29 17:44 SE 12 7.00 Partly Cloudy SCT015 84.2 73.4 70% 91 29.88 0.0
Date Time (est) Wind (mph) Vis. (mi.) Weather Sky Cond. Air Dwpt Max. Min. Relative Humidity Wind Chill (°F) Heat Index (°F) altimeter (in) sea level (mb) 1 hr 3 hr 6 hr
6 hour
Temperature (ºF) Pressure Precipitation (in)